createdAt,value
2023-01-26T00:01:13.611Z,-0.41
2023-01-26T00:03:40.822Z,-0.40
2023-01-26T00:06:09.499Z,-0.45
2023-01-26T00:08:40.209Z,-0.36
2023-01-26T00:11:08.218Z,-0.26
2023-01-26T00:13:35.401Z,-0.36
2023-01-26T00:16:03.168Z,-0.32
2023-01-26T00:18:30.633Z,-0.32
2023-01-26T00:21:02.102Z,-0.32
2023-01-26T00:23:32.990Z,-0.41
2023-01-26T00:26:00.127Z,-0.45
2023-01-26T00:28:28.309Z,-0.52
2023-01-26T00:31:01.970Z,-0.70
2023-01-26T00:33:29.368Z,-0.59
2023-01-26T00:35:56.089Z,-0.52
2023-01-26T00:38:22.739Z,-0.60
2023-01-26T00:40:49.387Z,-0.58
2023-01-26T00:43:16.347Z,-0.50
2023-01-26T00:45:42.985Z,-0.55
2023-01-26T00:48:09.667Z,-0.51
2023-01-26T00:50:36.324Z,-0.57
2023-01-26T00:53:03.037Z,-0.60
2023-01-26T00:55:32.560Z,-0.62
2023-01-26T00:58:04.078Z,-0.52
2023-01-26T01:00:31.809Z,-0.58
2023-01-26T01:02:59.342Z,-0.61
2023-01-26T01:05:28.255Z,-0.60
2023-01-26T01:07:55.231Z,-0.56
2023-01-26T01:10:22.052Z,-0.58
2023-01-26T01:12:48.764Z,-0.58
2023-01-26T01:15:15.806Z,-0.61
2023-01-26T01:17:42.640Z,-0.63
2023-01-26T01:20:11.364Z,-0.59
2023-01-26T01:22:38.739Z,-0.60
2023-01-26T01:25:05.936Z,-0.63
2023-01-26T01:27:32.616Z,-0.59
2023-01-26T01:29:59.211Z,-0.49
2023-01-26T01:32:25.919Z,-0.48
2023-01-26T01:34:52.605Z,-0.51
2023-01-26T01:37:19.208Z,-0.52
2023-01-26T01:39:45.884Z,-0.54
2023-01-26T01:42:12.921Z,-0.55
2023-01-26T01:44:39.761Z,-0.62
2023-01-26T01:47:23.316Z,-0.62
2023-01-26T01:49:51.331Z,-0.76
2023-01-26T01:52:20.927Z,-0.73
2023-01-26T01:55:08.997Z,-0.73
2023-01-26T01:57:51.766Z,-0.72
2023-01-26T02:00:21.327Z,-0.75
2023-01-26T02:03:11.967Z,-0.76
2023-01-26T02:06:09.127Z,-0.81
2023-01-26T02:08:51.494Z,-0.76
2023-01-26T02:11:21.679Z,-0.80
2023-01-26T02:13:49.501Z,-0.79
2023-01-26T02:16:17.028Z,-0.77
2023-01-26T02:18:44.866Z,-0.78
2023-01-26T02:21:14.475Z,-0.84
2023-01-26T02:24:03.057Z,-0.88
2023-01-26T02:26:32.322Z,-0.79
2023-01-26T02:29:00.400Z,-0.85
2023-01-26T02:31:27.764Z,-0.95
2023-01-26T02:33:54.548Z,-1.01
2023-01-26T02:36:26.698Z,-1.05
2023-01-26T02:39:21.762Z,-0.98
2023-01-26T02:42:08.483Z,-1.05
2023-01-26T02:44:35.332Z,-1.03
2023-01-26T02:47:02.011Z,-1.08
2023-01-26T02:49:47.193Z,-1.06
2023-01-26T02:52:15.085Z,-1.27
2023-01-26T02:55:00.215Z,-1.29
2023-01-26T02:57:27.300Z,-1.22
2023-01-26T02:59:54.048Z,-0.87
2023-01-26T03:02:21.093Z,-0.85
2023-01-26T03:04:47.791Z,-1.11
2023-01-26T03:07:14.537Z,-1.08
2023-01-26T03:09:41.198Z,-1.06
2023-01-26T03:12:08.080Z,-1.08
2023-01-26T03:14:34.827Z,-1.05
2023-01-26T03:17:01.544Z,-1.16
2023-01-26T03:19:46.972Z,-1.15
2023-01-26T03:22:31.932Z,-1.14
2023-01-26T03:25:17.531Z,-1.11
2023-01-26T03:27:46.710Z,-1.23
2023-01-26T03:30:15.209Z,-1.29
2023-01-26T03:32:42.208Z,-1.29
2023-01-26T03:35:15.044Z,-1.28
2023-01-26T03:37:44.624Z,-1.13
2023-01-26T03:40:31.414Z,-1.11
2023-01-26T03:43:16.822Z,-0.97
2023-01-26T03:46:02.305Z,-0.81
2023-01-26T03:48:47.724Z,-1.06
2023-01-26T03:51:33.329Z,-1.32
2023-01-26T03:54:18.995Z,-1.48
2023-01-26T03:56:45.726Z,-1.46
2023-01-26T03:59:15.364Z,-1.39
2023-01-26T04:02:04.902Z,-1.53
2023-01-26T04:04:50.516Z,-1.68
2023-01-26T04:07:36.079Z,-1.55
2023-01-26T04:10:02.793Z,-1.60
2023-01-26T04:12:29.567Z,-1.46
2023-01-26T04:15:14.790Z,-1.46
2023-01-26T04:17:59.776Z,-1.42
2023-01-26T04:20:45.088Z,-1.47
2023-01-26T04:23:21.042Z,-1.49
2023-01-26T04:25:48.709Z,-1.45
2023-01-26T04:28:15.584Z,-1.41
2023-01-26T04:30:42.853Z,-1.38
2023-01-26T04:33:10.465Z,-1.48
2023-01-26T04:35:37.218Z,-1.48
2023-01-26T04:38:03.988Z,-1.57
2023-01-26T04:40:30.760Z,-1.48
2023-01-26T04:42:57.496Z,-1.62
2023-01-26T04:45:24.129Z,-1.55
2023-01-26T04:47:50.998Z,-1.52
2023-01-26T04:50:17.788Z,-1.44
2023-01-26T04:52:44.597Z,-1.47
2023-01-26T04:55:11.302Z,-1.59
2023-01-26T04:57:38.029Z,-1.68
2023-01-26T05:00:05.432Z,-1.63
2023-01-26T05:02:32.355Z,-1.52
2023-01-26T05:04:59.076Z,-1.41
2023-01-26T05:07:25.843Z,-1.41
2023-01-26T05:09:52.586Z,-1.41
2023-01-26T05:12:34.415Z,-1.45
2023-01-26T05:15:01.112Z,-1.26
2023-01-26T05:17:27.775Z,-1.44
2023-01-26T05:19:54.488Z,-1.49
2023-01-26T05:22:21.363Z,-1.61
2023-01-26T05:24:47.969Z,-1.60
2023-01-26T05:27:23.567Z,-1.64
2023-01-26T05:29:51.273Z,-1.66
2023-01-26T05:32:18.407Z,-1.70
2023-01-26T05:34:46.271Z,-1.66
2023-01-26T05:37:14.797Z,-1.66
2023-01-26T05:39:42.240Z,-1.71
2023-01-26T05:42:09.033Z,-1.65
2023-01-26T05:44:35.760Z,-1.56
2023-01-26T05:47:02.436Z,-1.70
2023-01-26T05:49:29.136Z,-1.68
2023-01-26T05:51:55.883Z,-1.72
2023-01-26T05:54:22.637Z,-1.77
2023-01-26T05:56:49.545Z,-1.81
2023-01-26T05:59:16.265Z,-1.81
2023-01-26T06:01:43.044Z,-1.79
2023-01-26T06:04:09.831Z,-1.87
2023-01-26T06:06:36.631Z,-1.87
2023-01-26T06:09:03.600Z,-1.98
2023-01-26T06:11:32.080Z,-1.92
2023-01-26T06:13:58.841Z,-1.90
2023-01-26T06:16:25.611Z,-1.84
2023-01-26T06:18:52.306Z,-1.89
2023-01-26T06:21:19.271Z,-1.82
2023-01-26T06:23:46.009Z,-1.84
2023-01-26T06:26:12.941Z,-1.97
2023-01-26T06:28:39.574Z,-2.00
2023-01-26T06:31:07.927Z,-1.94
2023-01-26T06:33:36.276Z,-2.06
2023-01-26T06:36:10.149Z,-2.13
2023-01-26T06:38:36.992Z,-2.08
2023-01-26T06:41:05.968Z,-1.99
2023-01-26T06:43:34.056Z,-2.07
2023-01-26T06:46:01.596Z,-2.13
2023-01-26T06:48:30.879Z,-2.07
2023-01-26T06:51:00.306Z,-2.04
2023-01-26T06:53:33.095Z,-2.18
2023-01-26T06:55:59.982Z,-2.14
2023-01-26T06:58:26.747Z,-2.17
2023-01-26T07:00:53.591Z,-2.12
2023-01-26T07:03:20.537Z,-2.31
2023-01-26T07:05:47.312Z,-2.19
2023-01-26T07:08:14.029Z,-2.32
2023-01-26T07:10:40.721Z,-2.32
2023-01-26T07:13:08.022Z,-2.31
2023-01-26T07:15:34.963Z,-2.25
2023-01-26T07:18:01.799Z,-2.28
2023-01-26T07:20:28.601Z,-2.31
2023-01-26T07:22:55.606Z,-2.36
2023-01-26T07:25:22.280Z,-2.40
2023-01-26T07:27:49.017Z,-2.38
2023-01-26T07:30:16.138Z,-2.42
2023-01-26T07:32:42.821Z,-2.35
2023-01-26T07:35:09.769Z,-2.33
2023-01-26T07:37:36.555Z,-2.38
2023-01-26T07:40:03.917Z,-2.44
2023-01-26T07:42:31.258Z,-2.41
2023-01-26T07:44:57.981Z,-2.52
2023-01-26T07:47:24.677Z,-2.40
2023-01-26T07:49:51.731Z,-2.42
2023-01-26T07:52:18.509Z,-2.34
2023-01-26T07:54:45.241Z,-2.56
2023-01-26T07:57:12.909Z,-2.49
2023-01-26T07:59:39.759Z,-2.41
2023-01-26T08:02:06.490Z,-2.36
2023-01-26T08:04:33.287Z,-2.33
2023-01-26T08:07:00.203Z,-2.39
2023-01-26T08:09:27.281Z,-2.41
2023-01-26T08:11:57.450Z,-2.55
2023-01-26T08:14:24.717Z,-2.60
2023-01-26T08:16:51.448Z,-2.45
2023-01-26T08:19:18.452Z,-2.42
2023-01-26T08:21:45.211Z,-2.48
2023-01-26T08:24:12.915Z,-2.50
2023-01-26T08:26:39.789Z,-2.48
2023-01-26T08:29:06.753Z,-2.53
2023-01-26T08:31:33.675Z,-2.40
2023-01-26T08:34:00.589Z,-2.47
2023-01-26T08:36:28.683Z,-2.39
2023-01-26T08:38:55.533Z,-2.41
2023-01-26T08:41:22.300Z,-2.34
2023-01-26T08:43:49.163Z,-2.35
2023-01-26T08:46:16.178Z,-2.22
2023-01-26T08:48:43.034Z,-2.38
2023-01-26T08:51:09.890Z,-2.33
2023-01-26T08:53:37.603Z,-2.35
2023-01-26T08:56:06.203Z,-2.18
2023-01-26T08:58:33.921Z,-2.40
2023-01-26T09:01:07.560Z,-2.14
2023-01-26T09:03:34.699Z,-2.21
2023-01-26T09:06:02.359Z,-2.16
2023-01-26T09:08:29.137Z,-2.23
2023-01-26T09:10:56.381Z,-2.02
2023-01-26T09:13:23.367Z,-2.01
2023-01-26T09:15:50.440Z,-2.07
2023-01-26T09:18:18.155Z,-2.07
2023-01-26T09:20:44.937Z,-1.98
2023-01-26T09:23:12.794Z,-2.01
2023-01-26T09:25:39.914Z,-1.89
2023-01-26T09:28:09.002Z,-1.82
2023-01-26T09:30:36.144Z,-1.79
2023-01-26T09:33:04.700Z,-1.87
2023-01-26T09:35:31.711Z,-1.90
2023-01-26T09:37:58.523Z,-1.92
2023-01-26T09:41:01.578Z,-2.04
2023-01-26T09:43:34.272Z,-1.81
2023-01-26T09:46:26.652Z,-1.72
2023-01-26T09:49:01.872Z,-1.71
2023-01-26T09:51:32.435Z,-1.82
2023-01-26T09:54:04.949Z,-1.96
2023-01-26T09:56:35.565Z,-1.87
2023-01-26T09:59:14.001Z,-1.78
2023-01-26T10:02:10.454Z,-1.92
2023-01-26T10:04:39.279Z,-1.88
2023-01-26T10:07:10.033Z,-1.81
2023-01-26T10:09:38.289Z,-1.66
2023-01-26T10:12:08.073Z,-1.72
2023-01-26T10:14:42.663Z,-1.96
2023-01-26T10:17:34.044Z,-1.88
2023-01-26T10:20:08.890Z,-1.76
2023-01-26T10:22:50.911Z,-1.90
2023-01-26T10:25:38.929Z,-1.61
2023-01-26T10:28:17.990Z,-1.45
2023-01-26T10:30:47.921Z,-1.27
2023-01-26T10:33:26.736Z,-1.50
2023-01-26T10:35:53.971Z,-1.40
2023-01-26T10:38:28.704Z,-1.43
2023-01-26T10:40:56.081Z,-1.33
2023-01-26T10:43:24.854Z,-1.63
2023-01-26T10:45:51.656Z,-1.42
2023-01-26T10:48:27.038Z,-1.19
2023-01-26T10:50:54.736Z,-1.24
2023-01-26T10:53:25.718Z,-1.26
2023-01-26T10:56:24.881Z,-1.30
2023-01-26T10:58:58.220Z,-1.55
2023-01-26T11:01:27.881Z,-1.37
2023-01-26T11:04:12.584Z,-1.11
2023-01-26T11:06:39.664Z,-1.24
2023-01-26T11:09:29.661Z,-1.11
2023-01-26T11:11:59.039Z,-1.14
2023-01-26T11:14:25.914Z,-1.09
2023-01-26T11:17:06.149Z,-1.23
2023-01-26T11:19:39.070Z,-1.19
2023-01-26T11:22:08.349Z,-1.41
2023-01-26T11:24:45.360Z,-1.38
2023-01-26T11:27:35.400Z,-1.32
2023-01-26T11:30:35.762Z,-1.21
2023-01-26T11:33:29.498Z,-1.02
2023-01-26T11:36:22.944Z,-1.24
2023-01-26T11:39:09.692Z,-1.48
2023-01-26T11:41:48.032Z,-1.42
2023-01-26T11:44:39.364Z,-1.38
2023-01-26T11:47:06.086Z,-1.34
2023-01-26T11:49:56.084Z,-1.01
2023-01-26T11:52:34.987Z,-0.85
2023-01-26T11:55:07.735Z,-1.06
2023-01-26T11:57:37.592Z,-1.36
2023-01-26T12:00:28.601Z,-1.06
2023-01-26T12:03:02.925Z,-1.08
2023-01-26T12:05:35.211Z,-0.70
2023-01-26T12:08:27.989Z,-0.49
2023-01-26T12:10:54.653Z,-0.55
2023-01-26T12:13:38.997Z,-0.66
2023-01-26T12:16:14.209Z,-0.99
2023-01-26T12:18:58.855Z,-0.92
2023-01-26T12:21:34.648Z,-1.03
2023-01-26T12:24:03.384Z,-0.97
2023-01-26T12:26:35.682Z,-1.19
2023-01-26T12:29:09.420Z,-1.08
2023-01-26T12:31:43.852Z,-1.09
2023-01-26T12:34:12.371Z,-0.73
2023-01-26T12:37:20.812Z,-0.74
2023-01-26T12:40:18.123Z,-0.59
2023-01-26T12:42:49.951Z,-0.67
2023-01-26T12:45:23.750Z,-0.58
2023-01-26T12:48:06.989Z,-0.73
2023-01-26T12:50:43.715Z,-0.62
2023-01-26T12:53:20.324Z,-0.76
2023-01-26T12:56:10.323Z,-0.89
2023-01-26T12:58:44.523Z,-1.06
2023-01-26T13:01:16.816Z,-1.16
2023-01-26T13:03:44.303Z,-1.18
2023-01-26T13:06:10.976Z,-1.09
2023-01-26T13:08:37.647Z,-1.11
2023-01-26T13:11:06.868Z,-1.21
2023-01-26T13:13:55.323Z,-1.29
2023-01-26T13:16:32.218Z,-1.06
2023-01-26T13:19:00.511Z,-1.13
2023-01-26T13:21:39.555Z,-1.23
2023-01-26T13:24:18.495Z,-1.06
2023-01-26T13:26:58.820Z,-1.20
2023-01-26T13:29:25.581Z,-1.16
2023-01-26T13:31:54.927Z,-1.07
2023-01-26T13:34:43.510Z,-1.09
2023-01-26T13:37:17.813Z,-1.11
2023-01-26T13:39:47.522Z,-1.06
2023-01-26T13:43:06.092Z,-0.94
2023-01-26T13:45:40.582Z,-1.01
2023-01-26T13:48:15.350Z,-1.19
2023-01-26T13:50:42.901Z,-1.25
2023-01-26T13:53:41.620Z,-1.18
2023-01-26T13:56:33.162Z,-0.96
2023-01-26T13:59:23.117Z,-1.11
2023-01-26T14:01:52.060Z,-1.05
2023-01-26T14:04:23.858Z,-1.17
2023-01-26T14:06:56.504Z,-1.11
2023-01-26T14:09:23.652Z,-1.07
2023-01-26T14:11:57.114Z,-1.10
2023-01-26T14:14:27.940Z,-1.18
2023-01-26T14:16:57.903Z,-1.12
2023-01-26T14:19:24.991Z,-1.13
2023-01-26T14:21:57.281Z,-1.14
2023-01-26T14:24:30.112Z,-1.07
2023-01-26T14:26:56.986Z,-1.03
2023-01-26T14:29:26.570Z,-1.08
2023-01-26T14:31:56.413Z,-1.08
2023-01-26T14:34:25.803Z,-1.11
2023-01-26T14:37:14.067Z,-1.08
2023-01-26T14:39:42.934Z,-0.99
2023-01-26T14:42:14.508Z,-0.98
2023-01-26T14:44:41.525Z,-1.07
2023-01-26T14:47:21.398Z,-1.14
2023-01-26T14:49:53.196Z,-1.17
2023-01-26T14:52:26.179Z,-1.09
2023-01-26T14:54:54.779Z,-1.05
2023-01-26T14:57:24.311Z,-1.07
2023-01-26T14:59:54.323Z,-1.07
2023-01-26T15:02:26.447Z,-1.12
2023-01-26T15:05:04.032Z,-0.99
2023-01-26T15:07:39.028Z,-1.06
2023-01-26T15:10:35.676Z,-1.14
2023-01-26T15:13:11.588Z,-1.11
2023-01-26T15:15:40.628Z,-1.09
2023-01-26T15:18:13.129Z,-1.05
2023-01-26T15:20:45.521Z,-1.05
2023-01-26T15:23:38.302Z,-1.14
2023-01-26T15:26:10.371Z,-1.28
2023-01-26T15:28:38.735Z,-1.16
2023-01-26T15:31:06.212Z,-1.14
2023-01-26T15:33:53.428Z,-1.20
2023-01-26T15:36:23.198Z,-1.14
2023-01-26T15:38:50.247Z,-1.17
2023-01-26T15:41:17.117Z,-1.11
2023-01-26T15:43:43.883Z,-1.18
2023-01-26T15:46:10.737Z,-1.17
2023-01-26T15:48:37.814Z,-1.23
2023-01-26T15:51:09.066Z,-1.30
2023-01-26T15:53:35.875Z,-1.27
2023-01-26T15:56:02.554Z,-1.43
2023-01-26T15:58:31.675Z,-1.38
2023-01-26T16:00:58.600Z,-1.23
2023-01-26T16:03:25.455Z,-1.17
2023-01-26T16:05:52.265Z,-1.27
2023-01-26T16:08:19.726Z,-1.33
2023-01-26T16:10:47.425Z,-1.36
2023-01-26T16:13:18.104Z,-1.35
2023-01-26T16:15:46.648Z,-1.33
2023-01-26T16:18:13.641Z,-1.34
2023-01-26T16:20:42.199Z,-1.29
2023-01-26T16:23:20.687Z,-1.38
2023-01-26T16:25:48.261Z,-1.38
2023-01-26T16:28:15.476Z,-1.33
2023-01-26T16:30:43.965Z,-1.30
2023-01-26T16:33:15.646Z,-1.31
2023-01-26T16:35:43.091Z,-1.38
2023-01-26T16:38:13.318Z,-1.33
2023-01-26T16:40:41.904Z,-1.32
2023-01-26T16:43:21.414Z,-1.27
2023-01-26T16:45:49.488Z,-1.26
2023-01-26T16:48:16.680Z,-1.25
2023-01-26T16:50:44.282Z,-1.21
2023-01-26T16:53:26.823Z,-1.23
2023-01-26T16:55:54.072Z,-1.31
2023-01-26T16:58:21.938Z,-1.30
2023-01-26T17:00:49.451Z,-1.23
2023-01-26T17:03:16.280Z,-1.26
2023-01-26T17:05:43.396Z,-1.29
2023-01-26T17:08:10.520Z,-1.42
2023-01-26T17:10:40.110Z,-1.44
2023-01-26T17:13:13.779Z,-1.41
2023-01-26T17:15:40.523Z,-1.42
2023-01-26T17:18:08.389Z,-1.45
2023-01-26T17:20:35.101Z,-1.41
2023-01-26T17:23:01.810Z,-1.38
2023-01-26T17:25:28.538Z,-1.37
2023-01-26T17:27:55.232Z,-1.35
2023-01-26T17:30:22.312Z,-1.40
2023-01-26T17:32:49.086Z,-1.46
2023-01-26T17:35:15.884Z,-1.38
2023-01-26T17:37:42.658Z,-1.35
2023-01-26T17:40:10.470Z,-1.34
2023-01-26T17:42:37.370Z,-1.33
2023-01-26T17:45:04.560Z,-1.36
2023-01-26T17:47:34.733Z,-1.43
2023-01-26T17:50:01.848Z,-1.46
2023-01-26T17:52:28.564Z,-1.45
2023-01-26T17:54:55.432Z,-1.49
2023-01-26T17:57:22.122Z,-1.43
2023-01-26T17:59:48.937Z,-1.41
2023-01-26T18:02:15.784Z,-1.52
2023-01-26T18:04:42.579Z,-1.50
2023-01-26T18:07:09.440Z,-1.42
2023-01-26T18:09:36.233Z,-1.36
2023-01-26T18:12:03.072Z,-1.35
2023-01-26T18:14:30.162Z,-1.42
2023-01-26T18:16:56.894Z,-1.46
2023-01-26T18:19:23.706Z,-1.60
2023-01-26T18:21:51.231Z,-1.54
2023-01-26T18:24:18.110Z,-1.47
2023-01-26T18:26:45.200Z,-1.49
2023-01-26T18:29:12.207Z,-1.48
2023-01-26T18:31:43.587Z,-1.54
2023-01-26T18:34:11.129Z,-1.65
2023-01-26T18:36:37.868Z,-1.59
2023-01-26T18:39:10.594Z,-1.51
2023-01-26T18:41:40.393Z,-1.48
2023-01-26T18:44:08.391Z,-1.52
2023-01-26T18:46:35.187Z,-1.62
2023-01-26T18:49:03.694Z,-1.64
2023-01-26T18:51:32.849Z,-1.57
2023-01-26T18:54:00.036Z,-1.58
2023-01-26T18:56:27.297Z,-1.59
2023-01-26T18:58:54.351Z,-1.58
2023-01-26T19:01:21.891Z,-1.54
2023-01-26T19:03:55.253Z,-1.54
2023-01-26T19:06:24.058Z,-1.52
2023-01-26T19:08:58.586Z,-1.51
2023-01-26T19:11:37.352Z,-1.49
2023-01-26T19:14:05.454Z,-1.52
2023-01-26T19:16:32.747Z,-1.59
2023-01-26T19:18:59.966Z,-1.54
2023-01-26T19:21:27.736Z,-1.50
2023-01-26T19:23:56.230Z,-1.60
2023-01-26T19:26:25.827Z,-1.58
2023-01-26T19:28:54.338Z,-1.60
2023-01-26T19:31:22.446Z,-1.60
2023-01-26T19:33:50.665Z,-1.54
2023-01-26T19:36:17.622Z,-1.68
2023-01-26T19:38:44.379Z,-1.57
2023-01-26T19:41:11.455Z,-1.55
2023-01-26T19:43:38.439Z,-1.61
2023-01-26T19:46:05.797Z,-1.65
2023-01-26T19:48:32.632Z,-1.71
2023-01-26T19:51:01.425Z,-1.74
2023-01-26T19:53:28.321Z,-1.64
2023-01-26T19:55:55.278Z,-1.66
2023-01-26T19:58:22.126Z,-1.66
2023-01-26T20:00:48.829Z,-1.72
2023-01-26T20:03:15.629Z,-1.73
2023-01-26T20:05:42.344Z,-1.71
2023-01-26T20:08:09.012Z,-1.72
2023-01-26T20:10:35.743Z,-1.64
2023-01-26T20:13:02.615Z,-1.58
2023-01-26T20:15:29.758Z,-1.54
2023-01-26T20:17:57.400Z,-1.52
2023-01-26T20:20:24.681Z,-1.54
2023-01-26T20:22:51.543Z,-1.51
2023-01-26T20:25:18.414Z,-1.48
2023-01-26T20:27:45.592Z,-1.49
2023-01-26T20:30:13.033Z,-1.51
2023-01-26T20:32:40.003Z,-1.49
2023-01-26T20:35:08.757Z,-1.56
2023-01-26T20:37:36.967Z,-1.58
2023-01-26T20:40:04.999Z,-1.68
2023-01-26T20:42:31.965Z,-1.68
2023-01-26T20:44:59.284Z,-1.63
2023-01-26T20:47:26.360Z,-1.66
2023-01-26T20:49:56.114Z,-1.57
2023-01-26T20:52:24.240Z,-1.72
2023-01-26T20:54:52.399Z,-1.58
2023-01-26T20:57:19.272Z,-1.51
2023-01-26T20:59:46.277Z,-1.51
2023-01-26T21:02:14.772Z,-1.47
2023-01-26T21:04:42.281Z,-1.50
2023-01-26T21:07:09.885Z,-1.50
2023-01-26T21:09:37.129Z,-1.49
2023-01-26T21:12:04.198Z,-1.56
2023-01-26T21:14:31.321Z,-1.54
2023-01-26T21:16:58.865Z,-1.54
2023-01-26T21:19:25.893Z,-1.54
2023-01-26T21:21:52.721Z,-1.52
2023-01-26T21:24:19.538Z,-1.51
2023-01-26T21:26:48.032Z,-1.55
2023-01-26T21:29:16.268Z,-1.56
2023-01-26T21:31:46.080Z,-1.61
2023-01-26T21:34:12.986Z,-1.58
2023-01-26T21:36:39.833Z,-1.58
2023-01-26T21:39:10.840Z,-1.58
2023-01-26T21:41:56.010Z,-1.57
2023-01-26T21:44:23.869Z,-1.56
2023-01-26T21:46:53.543Z,-1.61
2023-01-26T21:49:20.979Z,-1.59
2023-01-26T21:52:06.449Z,-1.61
2023-01-26T21:54:33.845Z,-1.62
2023-01-26T21:57:01.630Z,-1.70
2023-01-26T21:59:29.647Z,-1.68
2023-01-26T22:01:58.042Z,-1.67
2023-01-26T22:04:28.152Z,-1.62
2023-01-26T22:06:56.055Z,-1.66
2023-01-26T22:09:23.974Z,-1.71
2023-01-26T22:11:51.426Z,-1.71
2023-01-26T22:14:20.976Z,-1.70
2023-01-26T22:16:48.165Z,-1.73
2023-01-26T22:19:15.122Z,-1.73
2023-01-26T22:21:41.916Z,-1.83
2023-01-26T22:24:11.741Z,-1.69
2023-01-26T22:26:39.322Z,-1.71
2023-01-26T22:29:06.323Z,-1.69
2023-01-26T22:31:33.741Z,-1.69
2023-01-26T22:34:00.968Z,-1.70
2023-01-26T22:36:28.107Z,-1.77
2023-01-26T22:38:54.849Z,-1.82
2023-01-26T22:41:23.744Z,-1.83
2023-01-26T22:43:52.389Z,-1.99
2023-01-26T22:46:20.627Z,-2.01
2023-01-26T22:48:47.322Z,-2.01
2023-01-26T22:51:18.331Z,-1.96
2023-01-26T22:53:45.335Z,-1.95
2023-01-26T22:56:12.481Z,-1.92
2023-01-26T22:58:56.545Z,-1.92
2023-01-26T23:01:26.102Z,-2.01
2023-01-26T23:03:54.429Z,-1.89
2023-01-26T23:06:21.519Z,-1.89
2023-01-26T23:08:48.343Z,-1.88
2023-01-26T23:11:22.491Z,-1.88
2023-01-26T23:13:50.312Z,-1.87
2023-01-26T23:16:17.460Z,-1.94
2023-01-26T23:18:44.367Z,-1.94
2023-01-26T23:21:11.451Z,-1.83
2023-01-26T23:23:39.384Z,-1.86
2023-01-26T23:26:06.589Z,-1.90
2023-01-26T23:28:35.218Z,-1.93
2023-01-26T23:31:02.817Z,-1.96
2023-01-26T23:33:31.116Z,-1.90
2023-01-26T23:35:57.821Z,-1.94
2023-01-26T23:38:26.464Z,-2.00
2023-01-26T23:40:53.206Z,-1.99
2023-01-26T23:43:20.106Z,-2.10
2023-01-26T23:45:48.466Z,-2.07
2023-01-26T23:48:15.859Z,-2.15
2023-01-26T23:50:42.461Z,-2.10
2023-01-26T23:53:09.119Z,-2.12
2023-01-26T23:55:36.259Z,-2.08
2023-01-26T23:58:02.962Z,-2.22
